San Clemente, CA

8:28 PM PDT on September 01, 2014 (GMT -0700)
North Ola Vista | Change Station
CLOSE
Current Station
Personal Weather Station
Location: San Clemente, CA
Elevation: 200 ft
Nearby Weather Stations

Elev 200 ft 33.43 °N, 117.62 °W | Updated 16 minutes ago

Clear
Clear
69.4 °F
Feels Like 69.4 °F
N
4.9
Wind Variable Wind from SW
Gusts 7.4 mph

Today
High -- | Low -- °F
--% Chance of Precip.
Yesterday
High -- | Low -- °F
Precip. -- in
6:24 AM 7:15 PM
Waxing Crescent, 47% visible
Pressure 30.05 in
Visibility 7.0 miles
Clouds Clear
Dew Point 65 °F
Humidity 86%
Rainfall 0.00 in
Snow Depth Not available.
UV 0 out of 12
Pollen 8.30 out of 12
Ozone Good
Flu Activity Not available.
METAR KNXF 020256Z AUTO 15004KT 7SM CLR 21/17 A2980 RMK AO2 SLP176 T02110167 53005 $

More Conditions Fewer Conditions

Pressure 30.05 in
Visibility 7.0 miles
Clouds Clear
Dew Point 65 °F
Humidity 86%
Rainfall 0.00 in
Snow Depth Not available.
UV 0 out of 12
Pollen 8.30 out of 12
Ozone Good
Flu Activity Not available.
METAR KNXF 020256Z AUTO 15004KT 7SM CLR 21/17 A2980 RMK AO2 SLP176 T02110167 53005 $

More Conditions Fewer Conditions

10-Day Weather Forecast

Almanac

Astronomy

Sep. 01, 2014 Rise Set
Actual Time 6:24 AM PDT 7:15 PM PDT
Civil Twilight 5:59 AM PDT 7:40 PM PDT
Nautical Twilight 5:29 AM PDT 8:10 PM PDT
Astronomical Twilight 4:58 AM PDT 8:41 PM PDT
Moon 12:55 PM PDT (9/1) 11:41 PM PDT (9/1)
Length of Visible Light 13h 41m
Length of Day
12h 50m
Tomorrow will be 1m 59s shorter.
Waxing Crescent, 47% of the Moon is Illuminated
Today
Waxing Crescent
Sep 2
First Quarter
Sep 8
Full
Sep 15
Last Quarter
Sep 24
New

Today's Extremes

State Highs State Lows

Community

WunderPhotos

Upload Photos

1,749,546 photos uploaded!

WunderBlogs® & News

Nearby

Air Quality

  Air Quality AQ Index Pollutant
Yesterday Good
OZONE
Current Good
OZONE
Tuesday Good
PM10
Tuesday Good
OZONE
Tuesday Good
CO
Tuesday Good
NO2

Snow Depth

Station Depth Elevation
Echo Peak 0 in 7800 ft
CSS Lab 1 in 6900 ft
Adin Mountain 1 in 6200 ft
Cedar Pass 0 in 7100 ft

Earthquake Activity

City Distance Mag. Time & Date
Malibu, California 87 miles 2.5 8:11 AM PDT
2014-08-30
Minimum magnitude displayed is 2.5.

Coastal Water Temperatures

Place Temperature
Santa Monica Pier 73.0 °F
Los Angeles, CA 71.1 °F
La Jolla, CA 73.0 °F

Nearby Weather Stations